Main page
METAR-TAF:

METAR-TAF

Airports :

Parma, Italy

Parma Airport

latitude: 44-49-17N, longitude: 010-17-41E, elevation: 50 m

Current weather observation

The report was made 1 hour and 11 minutes ago, at 19:50 UTC
Wind 1 kt from variable directions
Temperature 0°C
Humidity 93%
Pressure 1007 hPa
Visibility 10 km or more
no clouds below 1500 m and no cumulonimbus

METAR: LIMP 201950Z VRB01KT CAVOK M00/M01 Q1007

Time: 22:01 (21:01 UTC)

Forecast

The report was made 4 hours and 1 minutes ago, at 17:00 UTC
Forecast valid from 20 at 18 UTC to 21 at 18 UTC
Wind 5 kt from variable directions
Visibility 10 km or more
Scattered clouds at a height of 8000 ft
Temporary
from 20 at 22 UTC to 21 at 06 UTC
Visibility: 0600 m
fog
Temporary
from 21 at 09 UTC to 21 at 15 UTC
Wind 15 kt from the West/Northwest

TAF: LIMP 201700Z 2018/2118 VRB05KT 9999 SCT080 TEMPO 2022/2106 0600 FG TEMPO 2109/2115 30015KT

Weather observations and forecasts of more than 4000 airports (METAR and TAF reports).

The available stations are represented by yellow and red dots on the map.

Hover mouse over dot to see the name of the station.

Then click to see weather observations and forecasts.

To change the map : click on the green buttons with a black cross to zoom in, on the green button with a dash to zoom out, or on the green arrows for adjacent maps.


METAR-TAF: